sensor_id;sensor_type;location;lat;lon;timestamp;temperature;humidity
9837;DHT22;4957;51.412;6.724;2023-04-06T00:01:31;5.80;56.30
9837;DHT22;4957;51.412;6.724;2023-04-06T00:03:57;5.80;56.30
9837;DHT22;4957;51.412;6.724;2023-04-06T00:06:23;5.80;56.40
9837;DHT22;4957;51.412;6.724;2023-04-06T00:08:49;5.80;56.40
9837;DHT22;4957;51.412;6.724;2023-04-06T00:11:14;5.80;56.50
9837;DHT22;4957;51.412;6.724;2023-04-06T00:13:42;5.70;56.50
9837;DHT22;4957;51.412;6.724;2023-04-06T00:16:08;5.70;56.60
9837;DHT22;4957;51.412;6.724;2023-04-06T00:18:33;5.70;56.50
9837;DHT22;4957;51.412;6.724;2023-04-06T00:20:59;5.70;56.70
9837;DHT22;4957;51.412;6.724;2023-04-06T00:23:25;5.60;56.60
9837;DHT22;4957;51.412;6.724;2023-04-06T00:25:51;5.60;56.70
9837;DHT22;4957;51.412;6.724;2023-04-06T00:28:17;5.60;56.90
9837;DHT22;4957;51.412;6.724;2023-04-06T00:30:42;5.50;56.90
9837;DHT22;4957;51.412;6.724;2023-04-06T00:33:08;5.50;56.90
9837;DHT22;4957;51.412;6.724;2023-04-06T00:35:34;5.50;57.10
9837;DHT22;4957;51.412;6.724;2023-04-06T00:38:00;5.50;57.20
9837;DHT22;4957;51.412;6.724;2023-04-06T00:40:26;5.40;57.20
9837;DHT22;4957;51.412;6.724;2023-04-06T00:42:54;5.40;57.20
9837;DHT22;4957;51.412;6.724;2023-04-06T00:45:20;5.30;57.10
9837;DHT22;4957;51.412;6.724;2023-04-06T00:47:46;5.30;57.20
9837;DHT22;4957;51.412;6.724;2023-04-06T00:50:12;5.30;57.20
9837;DHT22;4957;51.412;6.724;2023-04-06T00:52:37;5.30;57.50
9837;DHT22;4957;51.412;6.724;2023-04-06T00:55:04;5.20;57.50
9837;DHT22;4957;51.412;6.724;2023-04-06T00:57:31;5.20;57.60
9837;DHT22;4957;51.412;6.724;2023-04-06T00:59:56;5.10;57.70
9837;DHT22;4957;51.412;6.724;2023-04-06T01:02:23;5.10;57.90
9837;DHT22;4957;51.412;6.724;2023-04-06T01:04:50;4.90;58.10
9837;DHT22;4957;51.412;6.724;2023-04-06T01:07:17;4.80;58.40
9837;DHT22;4957;51.412;6.724;2023-04-06T01:09:42;4.80;58.70
9837;DHT22;4957;51.412;6.724;2023-04-06T01:12:08;4.70;58.90
9837;DHT22;4957;51.412;6.724;2023-04-06T01:14:34;4.70;59.00
9837;DHT22;4957;51.412;6.724;2023-04-06T01:17:00;4.70;59.30
9837;DHT22;4957;51.412;6.724;2023-04-06T01:19:26;4.60;59.30
9837;DHT22;4957;51.412;6.724;2023-04-06T01:21:52;4.60;59.50
9837;DHT22;4957;51.412;6.724;2023-04-06T01:24:19;4.60;59.70
9837;DHT22;4957;51.412;6.724;2023-04-06T01:26:45;4.60;59.70
9837;DHT22;4957;51.412;6.724;2023-04-06T01:29:11;4.60;59.70
9837;DHT22;4957;51.412;6.724;2023-04-06T01:31:37;4.60;59.70
9837;DHT22;4957;51.412;6.724;2023-04-06T01:34:02;4.60;59.70
9837;DHT22;4957;51.412;6.724;2023-04-06T01:36:28;4.50;59.70
9837;DHT22;4957;51.412;6.724;2023-04-06T01:38:54;4.50;59.90
9837;DHT22;4957;51.412;6.724;2023-04-06T01:41:20;4.40;59.90
9837;DHT22;4957;51.412;6.724;2023-04-06T01:43:47;4.40;60.20
9837;DHT22;4957;51.412;6.724;2023-04-06T01:46:13;4.40;60.50
9837;DHT22;4957;51.412;6.724;2023-04-06T01:48:38;4.30;60.60
9837;DHT22;4957;51.412;6.724;2023-04-06T01:51:04;4.30;61.00
9837;DHT22;4957;51.412;6.724;2023-04-06T01:53:30;4.20;61.20
9837;DHT22;4957;51.412;6.724;2023-04-06T01:55:56;4.20;61.50
9837;DHT22;4957;51.412;6.724;2023-04-06T01:58:21;4.10;61.50
9837;DHT22;4957;51.412;6.724;2023-04-06T02:00:47;4.10;61.70
9837;DHT22;4957;51.412;6.724;2023-04-06T02:03:13;4.10;61.90
9837;DHT22;4957;51.412;6.724;2023-04-06T02:05:40;4.10;61.90
9837;DHT22;4957;51.412;6.724;2023-04-06T02:08:06;4.10;61.90
9837;DHT22;4957;51.412;6.724;2023-04-06T02:10:32;4.10;61.90
9837;DHT22;4957;51.412;6.724;2023-04-06T02:12:58;4.10;62.80
9837;DHT22;4957;51.412;6.724;2023-04-06T02:15:24;4.10;62.20
9837;DHT22;4957;51.412;6.724;2023-04-06T02:17:50;4.10;62.20
9837;DHT22;4957;51.412;6.724;2023-04-06T02:20:16;4.10;62.30
9837;DHT22;4957;51.412;6.724;2023-04-06T02:22:42;4.10;62.30
9837;DHT22;4957;51.412;6.724;2023-04-06T02:25:08;4.00;62.30
9837;DHT22;4957;51.412;6.724;2023-04-06T02:27:34;4.00;62.40
9837;DHT22;4957;51.412;6.724;2023-04-06T02:30:02;4.00;62.70
9837;DHT22;4957;51.412;6.724;2023-04-06T02:32:28;3.90;62.90
9837;DHT22;4957;51.412;6.724;2023-04-06T02:34:53;3.90;63.40
9837;DHT22;4957;51.412;6.724;2023-04-06T02:37:19;3.80;63.70
9837;DHT22;4957;51.412;6.724;2023-04-06T02:39:46;3.80;63.80
9837;DHT22;4957;51.412;6.724;2023-04-06T02:42:11;3.80;63.80
9837;DHT22;4957;51.412;6.724;2023-04-06T02:44:37;3.80;63.80
9837;DHT22;4957;51.412;6.724;2023-04-06T02:47:03;3.80;63.80
9837;DHT22;4957;51.412;6.724;2023-04-06T02:49:28;3.90;64.00
9837;DHT22;4957;51.412;6.724;2023-04-06T02:51:54;3.90;64.10
9837;DHT22;4957;51.412;6.724;2023-04-06T02:54:20;3.90;64.10
9837;DHT22;4957;51.412;6.724;2023-04-06T02:56:45;3.90;64.10
9837;DHT22;4957;51.412;6.724;2023-04-06T02:59:11;3.90;64.30
9837;DHT22;4957;51.412;6.724;2023-04-06T03:01:37;3.90;64.20
9837;DHT22;4957;51.412;6.724;2023-04-06T03:04:03;3.90;64.00
9837;DHT22;4957;51.412;6.724;2023-04-06T03:06:28;3.90;63.90
9837;DHT22;4957;51.412;6.724;2023-04-06T03:08:54;3.80;63.80
9837;DHT22;4957;51.412;6.724;2023-04-06T03:11:20;3.80;63.80
9837;DHT22;4957;51.412;6.724;2023-04-06T03:13:46;3.80;64.00
9837;DHT22;4957;51.412;6.724;2023-04-06T03:16:11;3.70;64.10
9837;DHT22;4957;51.412;6.724;2023-04-06T03:18:37;3.70;64.30
9837;DHT22;4957;51.412;6.724;2023-04-06T03:21:03;3.70;64.50
9837;DHT22;4957;51.412;6.724;2023-04-06T03:23:29;3.60;64.60
9837;DHT22;4957;51.412;6.724;2023-04-06T03:25:55;3.60;64.90
9837;DHT22;4957;51.412;6.724;2023-04-06T03:28:21;3.60;64.80
9837;DHT22;4957;51.412;6.724;2023-04-06T03:30:46;3.60;65.00
9837;DHT22;4957;51.412;6.724;2023-04-06T03:33:12;3.60;65.00
9837;DHT22;4957;51.412;6.724;2023-04-06T03:35:38;3.60;65.00
9837;DHT22;4957;51.412;6.724;2023-04-06T03:38:04;3.60;65.30
9837;DHT22;4957;51.412;6.724;2023-04-06T03:40:31;3.60;65.40
9837;DHT22;4957;51.412;6.724;2023-04-06T03:42:57;3.60;65.80
9837;DHT22;4957;51.412;6.724;2023-04-06T03:45:22;3.60;65.50
9837;DHT22;4957;51.412;6.724;2023-04-06T03:47:48;3.60;65.50
9837;DHT22;4957;51.412;6.724;2023-04-06T03:50:14;3.60;65.50
9837;DHT22;4957;51.412;6.724;2023-04-06T03:52:40;3.50;65.40
9837;DHT22;4957;51.412;6.724;2023-04-06T03:55:07;3.50;65.50
9837;DHT22;4957;51.412;6.724;2023-04-06T03:57:32;3.50;65.60
9837;DHT22;4957;51.412;6.724;2023-04-06T03:59:58;3.40;65.70
9837;DHT22;4957;51.412;6.724;2023-04-06T04:02:24;3.40;66.00
9837;DHT22;4957;51.412;6.724;2023-04-06T04:04:50;3.40;66.40
9837;DHT22;4957;51.412;6.724;2023-04-06T04:07:16;3.40;66.40
9837;DHT22;4957;51.412;6.724;2023-04-06T04:09:41;3.30;66.30
9837;DHT22;4957;51.412;6.724;2023-04-06T04:12:07;3.30;66.30
9837;DHT22;4957;51.412;6.724;2023-04-06T04:14:33;3.30;66.40
9837;DHT22;4957;51.412;6.724;2023-04-06T04:16:58;3.30;66.50
9837;DHT22;4957;51.412;6.724;2023-04-06T04:19:24;3.30;66.70
9837;DHT22;4957;51.412;6.724;2023-04-06T04:21:50;3.30;66.80
9837;DHT22;4957;51.412;6.724;2023-04-06T04:24:16;3.30;66.90
9837;DHT22;4957;51.412;6.724;2023-04-06T04:26:41;3.30;66.50
9837;DHT22;4957;51.412;6.724;2023-04-06T04:29:07;3.30;66.60
9837;DHT22;4957;51.412;6.724;2023-04-06T04:31:33;3.30;66.70
9837;DHT22;4957;51.412;6.724;2023-04-06T04:33:59;3.30;66.60
9837;DHT22;4957;51.412;6.724;2023-04-06T04:36:25;3.20;66.80
9837;DHT22;4957;51.412;6.724;2023-04-06T04:38:54;3.20;67.10
9837;DHT22;4957;51.412;6.724;2023-04-06T04:41:20;3.20;67.30
9837;DHT22;4957;51.412;6.724;2023-04-06T04:43:46;3.10;67.00
9837;DHT22;4957;51.412;6.724;2023-04-06T04:46:11;3.10;67.30
9837;DHT22;4957;51.412;6.724;2023-04-06T04:48:37;3.00;67.60
9837;DHT22;4957;51.412;6.724;2023-04-06T04:51:04;3.00;68.00
9837;DHT22;4957;51.412;6.724;2023-04-06T04:53:30;2.90;68.20
9837;DHT22;4957;51.412;6.724;2023-04-06T04:55:55;2.90;68.60
9837;DHT22;4957;51.412;6.724;2023-04-06T04:58:21;2.80;68.70
9837;DHT22;4957;51.412;6.724;2023-04-06T05:00:47;2.80;68.90
9837;DHT22;4957;51.412;6.724;2023-04-06T05:03:24;2.80;69.20
9837;DHT22;4957;51.412;6.724;2023-04-06T05:05:51;2.80;69.50
9837;DHT22;4957;51.412;6.724;2023-04-06T05:08:17;2.80;69.60
9837;DHT22;4957;51.412;6.724;2023-04-06T05:10:43;2.80;69.70
9837;DHT22;4957;51.412;6.724;2023-04-06T05:13:09;2.80;69.90
9837;DHT22;4957;51.412;6.724;2023-04-06T05:15:35;2.70;70.30
9837;DHT22;4957;51.412;6.724;2023-04-06T05:18:04;2.70;70.60
9837;DHT22;4957;51.412;6.724;2023-04-06T05:20:30;2.80;71.20
9837;DHT22;4957;51.412;6.724;2023-04-06T05:22:56;2.70;71.40
9837;DHT22;4957;51.412;6.724;2023-04-06T05:25:21;2.80;71.70
9837;DHT22;4957;51.412;6.724;2023-04-06T05:27:47;2.80;71.80
9837;DHT22;4957;51.412;6.724;2023-04-06T05:30:13;2.80;72.00
9837;DHT22;4957;51.412;6.724;2023-04-06T05:32:39;2.80;72.30
9837;DHT22;4957;51.412;6.724;2023-04-06T05:35:05;2.80;72.50
9837;DHT22;4957;51.412;6.724;2023-04-06T05:37:31;2.90;72.90
9837;DHT22;4957;51.412;6.724;2023-04-06T05:39:56;2.90;72.90
9837;DHT22;4957;51.412;6.724;2023-04-06T05:42:23;2.90;73.10
9837;DHT22;4957;51.412;6.724;2023-04-06T05:44:48;2.90;73.30
9837;DHT22;4957;51.412;6.724;2023-04-06T05:47:14;2.90;73.50
9837;DHT22;4957;51.412;6.724;2023-04-06T05:49:42;3.00;73.80
9837;DHT22;4957;51.412;6.724;2023-04-06T05:52:08;3.00;74.00
9837;DHT22;4957;51.412;6.724;2023-04-06T05:54:36;3.10;74.40
9837;DHT22;4957;51.412;6.724;2023-04-06T05:57:02;3.10;74.80
9837;DHT22;4957;51.412;6.724;2023-04-06T05:59:30;3.20;75.20
9837;DHT22;4957;51.412;6.724;2023-04-06T06:01:55;3.20;75.60
9837;DHT22;4957;51.412;6.724;2023-04-06T06:04:21;3.20;75.70
9837;DHT22;4957;51.412;6.724;2023-04-06T06:06:47;3.30;76.30
9837;DHT22;4957;51.412;6.724;2023-04-06T06:09:12;3.40;76.80
9837;DHT22;4957;51.412;6.724;2023-04-06T06:11:38;3.40;77.20
9837;DHT22;4957;51.412;6.724;2023-04-06T06:14:04;3.50;77.30
9837;DHT22;4957;51.412;6.724;2023-04-06T06:16:30;3.50;77.50
9837;DHT22;4957;51.412;6.724;2023-04-06T06:18:56;3.60;77.80
9837;DHT22;4957;51.412;6.724;2023-04-06T06:21:21;3.70;78.40
9837;DHT22;4957;51.412;6.724;2023-04-06T06:23:47;3.70;78.70
9837;DHT22;4957;51.412;6.724;2023-04-06T06:26:16;3.80;78.80
9837;DHT22;4957;51.412;6.724;2023-04-06T06:28:48;3.90;78.90
9837;DHT22;4957;51.412;6.724;2023-04-06T06:31:16;4.00;78.80
9837;DHT22;4957;51.412;6.724;2023-04-06T06:33:52;4.10;79.50
9837;DHT22;4957;51.412;6.724;2023-04-06T06:36:18;4.20;79.60
9837;DHT22;4957;51.412;6.724;2023-04-06T06:38:44;4.30;80.20
9837;DHT22;4957;51.412;6.724;2023-04-06T06:41:10;4.50;80.00
9837;DHT22;4957;51.412;6.724;2023-04-06T06:43:36;4.60;79.80
9837;DHT22;4957;51.412;6.724;2023-04-06T06:46:03;4.70;80.20
9837;DHT22;4957;51.412;6.724;2023-04-06T06:48:28;4.80;80.10
9837;DHT22;4957;51.412;6.724;2023-04-06T06:50:54;4.90;80.00
9837;DHT22;4957;51.412;6.724;2023-04-06T06:53:20;5.10;79.90
9837;DHT22;4957;51.412;6.724;2023-04-06T06:55:46;5.20;79.90
9837;DHT22;4957;51.412;6.724;2023-04-06T06:58:14;5.30;80.00
9837;DHT22;4957;51.412;6.724;2023-04-06T07:00:40;5.40;79.70
9837;DHT22;4957;51.412;6.724;2023-04-06T07:03:06;5.60;79.80
9837;DHT22;4957;51.412;6.724;2023-04-06T07:05:32;5.80;79.40
9837;DHT22;4957;51.412;6.724;2023-04-06T07:07:58;5.90;79.10
9837;DHT22;4957;51.412;6.724;2023-04-06T07:10:24;6.10;79.60
9837;DHT22;4957;51.412;6.724;2023-04-06T07:12:50;6.30;78.70
9837;DHT22;4957;51.412;6.724;2023-04-06T07:15:16;6.40;78.30
9837;DHT22;4957;51.412;6.724;2023-04-06T07:17:42;6.60;77.80
9837;DHT22;4957;51.412;6.724;2023-04-06T07:20:10;6.80;77.50
9837;DHT22;4957;51.412;6.724;2023-04-06T07:22:42;6.90;76.80
9837;DHT22;4957;51.412;6.724;2023-04-06T07:25:08;7.20;76.30
9837;DHT22;4957;51.412;6.724;2023-04-06T07:27:34;7.40;75.30
9837;DHT22;4957;51.412;6.724;2023-04-06T07:30:00;7.60;74.60
9837;DHT22;4957;51.412;6.724;2023-04-06T07:32:26;7.80;74.30
9837;DHT22;4957;51.412;6.724;2023-04-06T07:34:51;8.00;73.60
9837;DHT22;4957;51.412;6.724;2023-04-06T07:37:17;8.30;72.40
9837;DHT22;4957;51.412;6.724;2023-04-06T07:39:43;8.50;71.10
9837;DHT22;4957;51.412;6.724;2023-04-06T07:42:09;8.70;70.00
9837;DHT22;4957;51.412;6.724;2023-04-06T07:44:34;8.90;69.50
9837;DHT22;4957;51.412;6.724;2023-04-06T07:47:00;8.90;69.40
9837;DHT22;4957;51.412;6.724;2023-04-06T07:49:26;9.00;69.20
9837;DHT22;4957;51.412;6.724;2023-04-06T07:51:51;9.10;69.10
9837;DHT22;4957;51.412;6.724;2023-04-06T07:54:17;9.30;68.70
9837;DHT22;4957;51.412;6.724;2023-04-06T07:56:43;9.50;68.30
9837;DHT22;4957;51.412;6.724;2023-04-06T07:59:09;9.70;67.50
9837;DHT22;4957;51.412;6.724;2023-04-06T08:01:36;9.90;67.00
9837;DHT22;4957;51.412;6.724;2023-04-06T08:04:02;10.20;64.90
9837;DHT22;4957;51.412;6.724;2023-04-06T08:06:28;10.40;64.20
9837;DHT22;4957;51.412;6.724;2023-04-06T08:08:54;10.70;63.80
9837;DHT22;4957;51.412;6.724;2023-04-06T08:11:20;10.90;62.80
9837;DHT22;4957;51.412;6.724;2023-04-06T08:13:46;11.20;61.50
9837;DHT22;4957;51.412;6.724;2023-04-06T08:16:12;11.40;60.80
9837;DHT22;4957;51.412;6.724;2023-04-06T08:18:37;11.50;59.70
9837;DHT22;4957;51.412;6.724;2023-04-06T08:21:03;11.70;59.30
9837;DHT22;4957;51.412;6.724;2023-04-06T08:23:29;11.90;58.20
9837;DHT22;4957;51.412;6.724;2023-04-06T08:25:55;12.20;57.90
9837;DHT22;4957;51.412;6.724;2023-04-06T08:28:21;12.30;57.70
9837;DHT22;4957;51.412;6.724;2023-04-06T08:30:47;12.40;57.00
9837;DHT22;4957;51.412;6.724;2023-04-06T08:33:13;12.50;57.20
9837;DHT22;4957;51.412;6.724;2023-04-06T08:35:38;12.70;56.20
9837;DHT22;4957;51.412;6.724;2023-04-06T08:38:04;12.80;55.40
9837;DHT22;4957;51.412;6.724;2023-04-06T08:40:38;12.90;54.90
9837;DHT22;4957;51.412;6.724;2023-04-06T08:43:08;13.00;54.40
9837;DHT22;4957;51.412;6.724;2023-04-06T08:45:35;13.20;54.50
9837;DHT22;4957;51.412;6.724;2023-04-06T08:48:02;13.20;53.90
9837;DHT22;4957;51.412;6.724;2023-04-06T08:50:30;13.40;53.20
9837;DHT22;4957;51.412;6.724;2023-04-06T08:52:56;13.50;52.90
9837;DHT22;4957;51.412;6.724;2023-04-06T08:55:22;13.70;52.50
9837;DHT22;4957;51.412;6.724;2023-04-06T08:57:50;13.80;52.20
9837;DHT22;4957;51.412;6.724;2023-04-06T09:00:19;14.00;51.50
9837;DHT22;4957;51.412;6.724;2023-04-06T09:02:46;14.20;52.00
9837;DHT22;4957;51.412;6.724;2023-04-06T09:05:12;14.30;51.00
9837;DHT22;4957;51.412;6.724;2023-04-06T09:07:38;14.50;50.10
9837;DHT22;4957;51.412;6.724;2023-04-06T09:10:05;14.90;49.10
9837;DHT22;4957;51.412;6.724;2023-04-06T09:12:32;15.10;48.10
9837;DHT22;4957;51.412;6.724;2023-04-06T09:14:58;15.30;47.60
9837;DHT22;4957;51.412;6.724;2023-04-06T09:17:26;15.40;47.10
9837;DHT22;4957;51.412;6.724;2023-04-06T09:19:52;15.50;46.70
9837;DHT22;4957;51.412;6.724;2023-04-06T09:22:19;15.60;46.30
9837;DHT22;4957;51.412;6.724;2023-04-06T09:24:47;15.70;46.10
9837;DHT22;4957;51.412;6.724;2023-04-06T09:27:14;15.80;46.00
9837;DHT22;4957;51.412;6.724;2023-04-06T09:29:44;15.90;45.50
9837;DHT22;4957;51.412;6.724;2023-04-06T09:32:10;16.10;44.40
9837;DHT22;4957;51.412;6.724;2023-04-06T09:34:39;16.30;44.00
9837;DHT22;4957;51.412;6.724;2023-04-06T09:37:18;16.40;43.40
9837;DHT22;4957;51.412;6.724;2023-04-06T09:39:45;16.50;42.80
9837;DHT22;4957;51.412;6.724;2023-04-06T09:42:26;16.60;42.90
9837;DHT22;4957;51.412;6.724;2023-04-06T09:44:52;16.70;42.10
9837;DHT22;4957;51.412;6.724;2023-04-06T09:47:18;16.80;42.90
9837;DHT22;4957;51.412;6.724;2023-04-06T09:49:44;16.90;42.20
9837;DHT22;4957;51.412;6.724;2023-04-06T09:52:11;16.90;42.00
9837;DHT22;4957;51.412;6.724;2023-04-06T09:54:38;17.00;41.20
9837;DHT22;4957;51.412;6.724;2023-04-06T09:57:24;17.00;41.10
9837;DHT22;4957;51.412;6.724;2023-04-06T10:07:42;17.20;40.60
9837;DHT22;4957;51.412;6.724;2023-04-06T10:10:08;17.20;41.30
9837;DHT22;4957;51.412;6.724;2023-04-06T10:12:37;17.20;41.00
9837;DHT22;4957;51.412;6.724;2023-04-06T10:15:03;17.20;40.80
9837;DHT22;4957;51.412;6.724;2023-04-06T10:17:29;17.30;41.50
9837;DHT22;4957;51.412;6.724;2023-04-06T10:20:19;17.30;41.50
9837;DHT22;4957;51.412;6.724;2023-04-06T10:23:29;17.40;41.00
9837;DHT22;4957;51.412;6.724;2023-04-06T10:25:58;17.50;41.40
9837;DHT22;4957;51.412;6.724;2023-04-06T10:28:24;17.50;42.20
9837;DHT22;4957;51.412;6.724;2023-04-06T10:30:57;17.60;42.40
9837;DHT22;4957;51.412;6.724;2023-04-06T10:33:24;17.70;42.00
9837;DHT22;4957;51.412;6.724;2023-04-06T10:35:49;17.80;41.30
9837;DHT22;4957;51.412;6.724;2023-04-06T10:38:15;17.90;41.40
9837;DHT22;4957;51.412;6.724;2023-04-06T10:40:45;18.00;41.50
9837;DHT22;4957;51.412;6.724;2023-04-06T10:43:22;18.00;41.60
9837;DHT22;4957;51.412;6.724;2023-04-06T10:45:55;18.10;41.00
9837;DHT22;4957;51.412;6.724;2023-04-06T10:48:22;18.30;40.50
9837;DHT22;4957;51.412;6.724;2023-04-06T10:50:50;18.50;40.70
9837;DHT22;4957;51.412;6.724;2023-04-06T10:53:26;18.60;40.10
9837;DHT22;4957;51.412;6.724;2023-04-06T10:55:55;18.60;40.10
9837;DHT22;4957;51.412;6.724;2023-04-06T10:58:25;18.70;40.50
9837;DHT22;4957;51.412;6.724;2023-04-06T11:00:51;18.70;40.40
9837;DHT22;4957;51.412;6.724;2023-04-06T11:03:17;18.70;40.40
9837;DHT22;4957;51.412;6.724;2023-04-06T11:05:48;18.80;40.80
9837;DHT22;4957;51.412;6.724;2023-04-06T11:08:28;18.80;39.90
9837;DHT22;4957;51.412;6.724;2023-04-06T11:11:07;18.90;39.90
9837;DHT22;4957;51.412;6.724;2023-04-06T11:13:40;18.90;39.60
9837;DHT22;4957;51.412;6.724;2023-04-06T11:16:06;19.00;40.30
9837;DHT22;4957;51.412;6.724;2023-04-06T11:18:31;19.00;40.50
9837;DHT22;4957;51.412;6.724;2023-04-06T11:20:57;19.10;41.20
9837;DHT22;4957;51.412;6.724;2023-04-06T11:23:26;19.10;40.90
9837;DHT22;4957;51.412;6.724;2023-04-06T11:25:53;19.10;40.10
9837;DHT22;4957;51.412;6.724;2023-04-06T11:28:19;19.20;40.10
9837;DHT22;4957;51.412;6.724;2023-04-06T11:30:45;19.30;39.80
9837;DHT22;4957;51.412;6.724;2023-04-06T11:33:20;19.30;40.00
9837;DHT22;4957;51.412;6.724;2023-04-06T11:35:46;19.30;40.20
9837;DHT22;4957;51.412;6.724;2023-04-06T11:38:12;19.30;40.30
9837;DHT22;4957;51.412;6.724;2023-04-06T11:40:38;19.30;41.60
9837;DHT22;4957;51.412;6.724;2023-04-06T11:43:04;19.30;40.90
9837;DHT22;4957;51.412;6.724;2023-04-06T11:45:42;19.30;40.70
9837;DHT22;4957;51.412;6.724;2023-04-06T11:48:18;19.30;40.70
9837;DHT22;4957;51.412;6.724;2023-04-06T11:50:46;19.20;40.70
9837;DHT22;4957;51.412;6.724;2023-04-06T11:53:13;19.20;40.60
9837;DHT22;4957;51.412;6.724;2023-04-06T11:55:38;19.30;41.10
9837;DHT22;4957;51.412;6.724;2023-04-06T11:58:05;19.20;41.20
9837;DHT22;4957;51.412;6.724;2023-04-06T12:00:32;19.20;40.90
9837;DHT22;4957;51.412;6.724;2023-04-06T12:03:00;19.30;40.30
9837;DHT22;4957;51.412;6.724;2023-04-06T12:05:27;19.30;40.20
9837;DHT22;4957;51.412;6.724;2023-04-06T12:07:53;19.30;40.30
9837;DHT22;4957;51.412;6.724;2023-04-06T12:10:19;19.30;40.70
9837;DHT22;4957;51.412;6.724;2023-04-06T12:12:45;19.30;40.10
9837;DHT22;4957;51.412;6.724;2023-04-06T12:15:11;19.30;39.50
9837;DHT22;4957;51.412;6.724;2023-04-06T12:17:37;19.30;40.30
9837;DHT22;4957;51.412;6.724;2023-04-06T12:20:02;19.40;40.30
9837;DHT22;4957;51.412;6.724;2023-04-06T12:22:28;19.30;40.50
9837;DHT22;4957;51.412;6.724;2023-04-06T12:24:54;19.40;39.70
9837;DHT22;4957;51.412;6.724;2023-04-06T12:27:20;19.50;40.40
9837;DHT22;4957;51.412;6.724;2023-04-06T12:29:47;19.50;40.20
9837;DHT22;4957;51.412;6.724;2023-04-06T12:32:13;19.50;39.70
9837;DHT22;4957;51.412;6.724;2023-04-06T12:34:38;19.60;39.30
9837;DHT22;4957;51.412;6.724;2023-04-06T12:37:04;19.60;40.10
9837;DHT22;4957;51.412;6.724;2023-04-06T12:39:30;19.60;41.00
9837;DHT22;4957;51.412;6.724;2023-04-06T12:41:56;19.60;41.10
9837;DHT22;4957;51.412;6.724;2023-04-06T12:44:23;19.60;40.20
9837;DHT22;4957;51.412;6.724;2023-04-06T12:46:48;19.60;41.10
9837;DHT22;4957;51.412;6.724;2023-04-06T12:49:15;19.50;40.70
9837;DHT22;4957;51.412;6.724;2023-04-06T12:51:43;19.50;41.00
9837;DHT22;4957;51.412;6.724;2023-04-06T12:54:09;19.50;40.90
9837;DHT22;4957;51.412;6.724;2023-04-06T12:56:36;19.60;41.60
9837;DHT22;4957;51.412;6.724;2023-04-06T12:59:02;19.60;41.50
9837;DHT22;4957;51.412;6.724;2023-04-06T13:01:27;19.50;41.20
9837;DHT22;4957;51.412;6.724;2023-04-06T13:03:54;19.50;40.90
9837;DHT22;4957;51.412;6.724;2023-04-06T13:06:19;19.50;41.70
9837;DHT22;4957;51.412;6.724;2023-04-06T13:08:45;19.50;40.90
9837;DHT22;4957;51.412;6.724;2023-04-06T13:11:12;19.60;41.00
9837;DHT22;4957;51.412;6.724;2023-04-06T13:13:38;19.50;40.50
9837;DHT22;4957;51.412;6.724;2023-04-06T13:16:08;19.50;41.20
9837;DHT22;4957;51.412;6.724;2023-04-06T13:18:34;19.50;41.40
9837;DHT22;4957;51.412;6.724;2023-04-06T13:21:02;19.40;40.80
9837;DHT22;4957;51.412;6.724;2023-04-06T13:23:28;19.50;40.70
9837;DHT22;4957;51.412;6.724;2023-04-06T13:26:12;19.50;40.90
9837;DHT22;4957;51.412;6.724;2023-04-06T13:28:38;19.50;40.10
9837;DHT22;4957;51.412;6.724;2023-04-06T13:31:05;19.40;41.50
9837;DHT22;4957;51.412;6.724;2023-04-06T13:33:31;19.40;41.00
9837;DHT22;4957;51.412;6.724;2023-04-06T13:35:58;19.40;40.90
9837;DHT22;4957;51.412;6.724;2023-04-06T13:38:28;19.30;41.10
9837;DHT22;4957;51.412;6.724;2023-04-06T13:41:20;19.30;42.00
9837;DHT22;4957;51.412;6.724;2023-04-06T13:43:47;19.20;42.40
9837;DHT22;4957;51.412;6.724;2023-04-06T13:46:13;19.10;43.10
9837;DHT22;4957;51.412;6.724;2023-04-06T13:48:39;19.10;44.00
9837;DHT22;4957;51.412;6.724;2023-04-06T13:51:12;19.00;44.50
9837;DHT22;4957;51.412;6.724;2023-04-06T13:53:38;18.90;44.80
9837;DHT22;4957;51.412;6.724;2023-04-06T13:56:05;18.80;45.40
9837;DHT22;4957;51.412;6.724;2023-04-06T13:58:30;18.80;46.20
9837;DHT22;4957;51.412;6.724;2023-04-06T14:01:03;18.70;46.90
9837;DHT22;4957;51.412;6.724;2023-04-06T14:03:28;18.70;47.90
9837;DHT22;4957;51.412;6.724;2023-04-06T14:05:54;18.60;48.30
9837;DHT22;4957;51.412;6.724;2023-04-06T14:08:20;18.50;49.20
9837;DHT22;4957;51.412;6.724;2023-04-06T14:10:46;18.40;49.10
9837;DHT22;4957;51.412;6.724;2023-04-06T14:13:11;18.40;49.50
9837;DHT22;4957;51.412;6.724;2023-04-06T14:15:37;18.30;49.90
9837;DHT22;4957;51.412;6.724;2023-04-06T14:18:03;18.20;49.90
9837;DHT22;4957;51.412;6.724;2023-04-06T14:20:31;18.20;50.20
9837;DHT22;4957;51.412;6.724;2023-04-06T14:22:57;18.20;50.70
9837;DHT22;4957;51.412;6.724;2023-04-06T14:25:24;18.10;51.30
9837;DHT22;4957;51.412;6.724;2023-04-06T14:27:50;18.10;51.80
9837;DHT22;4957;51.412;6.724;2023-04-06T14:30:16;18.10;52.20
9837;DHT22;4957;51.412;6.724;2023-04-06T14:32:42;18.00;52.10
9837;DHT22;4957;51.412;6.724;2023-04-06T14:35:08;17.90;52.40
9837;DHT22;4957;51.412;6.724;2023-04-06T14:37:34;17.90;52.40
9837;DHT22;4957;51.412;6.724;2023-04-06T14:40:00;17.80;52.70
9837;DHT22;4957;51.412;6.724;2023-04-06T14:42:25;17.80;52.90
9837;DHT22;4957;51.412;6.724;2023-04-06T14:44:51;17.70;53.00
9837;DHT22;4957;51.412;6.724;2023-04-06T14:47:19;17.60;53.20
9837;DHT22;4957;51.412;6.724;2023-04-06T14:49:48;17.50;53.70
9837;DHT22;4957;51.412;6.724;2023-04-06T14:52:14;17.50;54.10
9837;DHT22;4957;51.412;6.724;2023-04-06T14:54:40;17.40;54.50
9837;DHT22;4957;51.412;6.724;2023-04-06T14:57:06;17.30;55.00
9837;DHT22;4957;51.412;6.724;2023-04-06T14:59:32;17.20;55.40
9837;DHT22;4957;51.412;6.724;2023-04-06T15:01:58;17.10;55.80
9837;DHT22;4957;51.412;6.724;2023-04-06T15:04:25;17.10;56.20
9837;DHT22;4957;51.412;6.724;2023-04-06T15:06:51;17.00;56.90
9837;DHT22;4957;51.412;6.724;2023-04-06T15:09:16;16.90;57.50
9837;DHT22;4957;51.412;6.724;2023-04-06T15:11:42;16.70;57.80
9837;DHT22;4957;51.412;6.724;2023-04-06T15:14:08;16.60;58.40
9837;DHT22;4957;51.412;6.724;2023-04-06T15:16:34;16.50;58.90
9837;DHT22;4957;51.412;6.724;2023-04-06T15:19:00;16.30;59.30
9837;DHT22;4957;51.412;6.724;2023-04-06T15:21:26;16.20;59.90
9837;DHT22;4957;51.412;6.724;2023-04-06T15:23:53;16.10;60.20
9837;DHT22;4957;51.412;6.724;2023-04-06T15:26:20;16.00;61.00
9837;DHT22;4957;51.412;6.724;2023-04-06T15:28:45;15.80;61.40
9837;DHT22;4957;51.412;6.724;2023-04-06T15:31:19;15.70;61.80
9837;DHT22;4957;51.412;6.724;2023-04-06T15:33:46;15.60;62.40
9837;DHT22;4957;51.412;6.724;2023-04-06T15:36:23;15.50;63.10
9837;DHT22;4957;51.412;6.724;2023-04-06T15:38:54;15.40;64.20
9837;DHT22;4957;51.412;6.724;2023-04-06T15:41:20;15.20;65.20
9837;DHT22;4957;51.412;6.724;2023-04-06T15:43:46;15.00;66.30
9837;DHT22;4957;51.412;6.724;2023-04-06T15:46:11;14.90;66.70
9837;DHT22;4957;51.412;6.724;2023-04-06T15:48:37;14.80;67.70
9837;DHT22;4957;51.412;6.724;2023-04-06T15:51:03;14.70;68.00
9837;DHT22;4957;51.412;6.724;2023-04-06T15:53:28;14.60;68.80
9837;DHT22;4957;51.412;6.724;2023-04-06T15:56:01;14.50;69.10
9837;DHT22;4957;51.412;6.724;2023-04-06T15:58:28;14.50;69.70
9837;DHT22;4957;51.412;6.724;2023-04-06T16:00:54;14.50;69.80
9837;DHT22;4957;51.412;6.724;2023-04-06T16:03:20;14.40;70.50
9837;DHT22;4957;51.412;6.724;2023-04-06T16:05:46;14.30;71.20
9837;DHT22;4957;51.412;6.724;2023-04-06T16:08:12;14.10;71.70
9837;DHT22;4957;51.412;6.724;2023-04-06T16:10:40;14.00;72.20
9837;DHT22;4957;51.412;6.724;2023-04-06T16:13:07;14.00;72.90
9837;DHT22;4957;51.412;6.724;2023-04-06T16:15:33;13.90;73.30